createdAt,value
2018-03-28T00:02:14.527Z,93.70
2018-03-28T00:04:42.120Z,93.40
2018-03-28T00:07:10.513Z,93.30
2018-03-28T00:09:40.579Z,93.30
2018-03-28T00:12:08.175Z,93.30
2018-03-28T00:14:35.868Z,93.70
2018-03-28T00:17:03.567Z,93.60
2018-03-28T00:19:31.128Z,93.30
2018-03-28T00:21:58.749Z,92.50
2018-03-28T00:24:27.181Z,92.10
2018-03-28T00:26:55.326Z,92.10
2018-03-28T00:29:23.152Z,92.20
2018-03-28T00:31:50.903Z,92.10
2018-03-28T00:34:18.514Z,91.80
2018-03-28T00:36:46.928Z,92.10
2018-03-28T00:39:15.445Z,92.10
2018-03-28T00:41:43.819Z,92.40
2018-03-28T00:44:11.388Z,92.30
2018-03-28T00:46:39.990Z,92.30
2018-03-28T00:49:08.087Z,92.50
2018-03-28T00:51:37.661Z,92.50
2018-03-28T00:54:05.266Z,92.40
2018-03-28T00:56:32.898Z,92.10
2018-03-28T00:59:00.502Z,92.30
2018-03-28T01:01:28.064Z,92.30
2018-03-28T01:03:56.214Z,92.40
2018-03-28T01:06:23.857Z,92.60
2018-03-28T01:08:51.428Z,92.40
2018-03-28T01:11:19.060Z,92.40
2018-03-28T01:13:46.696Z,92.50
2018-03-28T01:16:14.259Z,92.70
2018-03-28T01:18:41.851Z,92.60
2018-03-28T01:21:09.527Z,92.60
2018-03-28T01:23:38.160Z,92.70
2018-03-28T01:26:06.494Z,92.90
2018-03-28T01:28:34.094Z,92.90
2018-03-28T01:31:01.724Z,93.00
2018-03-28T01:33:29.283Z,93.10
2018-03-28T01:35:56.953Z,93.00
2018-03-28T01:38:24.568Z,93.10
2018-03-28T01:40:54.462Z,93.10
2018-03-28T01:43:22.138Z,93.00
2018-03-28T01:45:50.548Z,92.90
2018-03-28T01:48:18.156Z,92.80
2018-03-28T01:50:45.756Z,92.80
2018-03-28T01:53:13.485Z,92.80
2018-03-28T01:55:41.065Z,92.80
2018-03-28T01:58:09.242Z,92.90
2018-03-28T02:00:37.603Z,92.80
2018-03-28T02:03:05.202Z,92.70
2018-03-28T02:05:33.649Z,92.90
2018-03-28T02:08:01.240Z,92.90
2018-03-28T02:10:29.566Z,93.10
2018-03-28T02:12:57.177Z,93.10
2018-03-28T02:15:24.854Z,92.90
2018-03-28T02:17:53.037Z,93.10
2018-03-28T02:20:20.671Z,93.10
2018-03-28T02:22:48.347Z,93.30
2018-03-28T02:25:16.706Z,92.90
2018-03-28T02:27:44.323Z,92.90
2018-03-28T02:30:11.951Z,92.90
2018-03-28T02:32:40.537Z,93.10
2018-03-28T02:35:08.212Z,93.10
2018-03-28T02:37:36.188Z,93.20
2018-03-28T02:40:04.630Z,93.50
2018-03-28T02:42:32.434Z,93.50
2018-03-28T02:45:00.536Z,93.20
2018-03-28T02:47:28.125Z,93.00
2018-03-28T02:49:55.842Z,92.90
2018-03-28T02:52:23.441Z,93.00
2018-03-28T02:54:51.075Z,93.00
2018-03-28T02:57:18.813Z,93.40
2018-03-28T02:59:47.011Z,93.50
2018-03-28T03:02:15.732Z,94.10
2018-03-28T03:04:43.299Z,94.10
2018-03-28T03:07:10.904Z,94.10
2018-03-28T03:09:38.526Z,94.30
2018-03-28T03:12:06.095Z,93.80
2018-03-28T03:14:33.684Z,93.50
2018-03-28T03:17:01.386Z,93.40
2018-03-28T03:19:28.975Z,93.60
2018-03-28T03:21:56.986Z,93.70
2018-03-28T03:24:25.435Z,94.00
2018-03-28T03:26:53.040Z,94.00
2018-03-28T03:29:20.658Z,94.10
2018-03-28T03:31:49.011Z,94.30
2018-03-28T03:34:17.679Z,94.50
2018-03-28T03:36:45.275Z,94.70
2018-03-28T03:39:13.191Z,94.40
2018-03-28T03:41:40.839Z,94.20
2018-03-28T03:44:08.482Z,94.20
2018-03-28T03:46:36.343Z,94.20
2018-03-28T03:49:04.358Z,94.30
2018-03-28T03:51:31.930Z,94.70
2018-03-28T03:53:59.571Z,94.80
2018-03-28T03:56:27.177Z,94.60
2018-03-28T03:58:54.746Z,94.30
2018-03-28T04:01:22.326Z,94.20
2018-03-28T04:03:49.972Z,94.40
2018-03-28T04:06:18.322Z,94.30
2018-03-28T04:08:45.883Z,94.20
2018-03-28T04:11:13.470Z,94.30
2018-03-28T04:13:42.604Z,94.70
2018-03-28T04:16:10.420Z,94.70
2018-03-28T04:18:37.990Z,94.80
2018-03-28T04:21:05.731Z,94.90
2018-03-28T04:23:33.296Z,95.00
2018-03-28T04:26:00.864Z,94.90
2018-03-28T04:28:28.584Z,95.10
2018-03-28T04:30:56.227Z,95.10
2018-03-28T04:33:23.826Z,95.30
2018-03-28T04:35:51.427Z,95.30
2018-03-28T04:38:19.101Z,95.10
2018-03-28T04:40:46.970Z,94.90
2018-03-28T04:43:14.558Z,95.20
2018-03-28T04:45:42.133Z,95.40
2018-03-28T04:48:09.785Z,95.60
2018-03-28T04:50:37.414Z,95.90
2018-03-28T04:53:05.007Z,96.00
2018-03-28T04:55:32.974Z,96.30
2018-03-28T04:58:01.329Z,96.90
2018-03-28T05:00:29.314Z,96.60
2018-03-28T05:02:56.876Z,96.70
2018-03-28T05:05:24.449Z,96.80
2018-03-28T05:07:52.830Z,97.20
2018-03-28T05:10:20.443Z,96.90
2018-03-28T05:12:48.071Z,96.80
2018-03-28T05:15:16.460Z,96.30
2018-03-28T05:17:45.175Z,96.30
2018-03-28T05:20:12.778Z,96.30
2018-03-28T05:22:40.506Z,96.30
2018-03-28T05:25:08.068Z,96.20
2018-03-28T05:27:35.623Z,96.40
2018-03-28T05:30:03.891Z,96.70
2018-03-28T05:32:31.482Z,96.90
2018-03-28T05:34:59.080Z,97.00
2018-03-28T05:37:26.698Z,96.90
2018-03-28T05:39:54.274Z,97.00
2018-03-28T05:42:22.675Z,97.10
2018-03-28T05:44:50.238Z,97.10
2018-03-28T05:47:18.598Z,97.10
2018-03-28T05:49:46.279Z,97.10
2018-03-28T05:52:13.868Z,97.10
2018-03-28T05:54:42.283Z,96.60
2018-03-28T05:57:09.878Z,96.70
2018-03-28T05:59:37.435Z,96.60
2018-03-28T06:02:05.066Z,96.50
2018-03-28T06:04:32.647Z,96.60
2018-03-28T06:07:00.237Z,96.80
2018-03-28T06:09:27.940Z,97.00
2018-03-28T06:11:56.423Z,97.20
2018-03-28T06:14:24.764Z,97.20
2018-03-28T06:16:53.096Z,97.20
2018-03-28T06:19:20.841Z,97.20
2018-03-28T06:21:51.784Z,97.50
2018-03-28T06:24:19.396Z,97.30
2018-03-28T06:26:47.024Z,97.30
2018-03-28T06:29:14.636Z,97.30
2018-03-28T06:31:42.239Z,97.20
2018-03-28T06:34:10.623Z,96.80
2018-03-28T06:36:38.268Z,97.00
2018-03-28T06:39:06.658Z,96.70
2018-03-28T06:41:34.313Z,96.70
2018-03-28T06:44:02.180Z,96.30
2018-03-28T06:46:31.321Z,94.60
2018-03-28T06:48:59.827Z,93.70
2018-03-28T06:51:27.524Z,93.60
2018-03-28T06:53:56.417Z,93.60
2018-03-28T06:56:25.050Z,93.80
2018-03-28T06:58:53.181Z,94.00
2018-03-28T07:01:23.264Z,94.00
2018-03-28T07:04:03.855Z,94.30
2018-03-28T07:06:32.374Z,94.40
2018-03-28T07:09:01.375Z,94.40
2018-03-28T07:11:29.099Z,94.60
2018-03-28T07:13:56.688Z,94.70
2018-03-28T07:16:25.094Z,94.60
2018-03-28T07:18:57.294Z,94.80
2018-03-28T07:23:58.750Z,94.90
2018-03-28T07:26:27.084Z,95.00
2018-03-28T07:28:54.716Z,95.00
2018-03-28T07:31:22.437Z,95.10
2018-03-28T07:33:50.049Z,95.10
2018-03-28T07:36:17.689Z,95.10
2018-03-28T07:38:46.149Z,94.90
2018-03-28T07:41:14.616Z,94.80
2018-03-28T07:43:42.265Z,94.80
2018-03-28T07:46:10.124Z,94.90
2018-03-28T07:48:37.754Z,94.80
2018-03-28T07:51:05.350Z,94.40
2018-03-28T07:53:32.937Z,94.50
2018-03-28T07:56:01.357Z,94.50
2018-03-28T07:58:29.069Z,94.50
2018-03-28T08:00:56.671Z,94.60
2018-03-28T08:03:24.263Z,94.70
2018-03-28T08:05:51.873Z,94.60
2018-03-28T08:08:19.494Z,94.60
2018-03-28T08:10:47.098Z,94.50
2018-03-28T08:13:14.689Z,94.20
2018-03-28T08:15:43.355Z,94.00
2018-03-28T08:18:10.950Z,94.00
2018-03-28T08:20:39.894Z,94.20
2018-03-28T08:23:07.498Z,94.20
2018-03-28T08:25:35.085Z,94.20
2018-03-28T08:28:03.187Z,94.40
2018-03-28T08:30:30.815Z,94.30
2018-03-28T08:32:59.146Z,94.20
2018-03-28T08:35:27.342Z,94.10
2018-03-28T08:37:54.914Z,94.00
2018-03-28T08:40:22.502Z,93.80
2018-03-28T08:42:51.655Z,94.10
2018-03-28T08:45:19.297Z,94.00
2018-03-28T08:47:47.235Z,94.40
2018-03-28T08:50:15.649Z,93.50
2018-03-28T08:52:43.418Z,93.90
2018-03-28T08:55:11.943Z,93.40
2018-03-28T08:57:39.571Z,93.70
2018-03-28T09:00:07.160Z,94.00
2018-03-28T09:02:34.748Z,93.60
2018-03-28T09:05:03.150Z,93.10
2018-03-28T09:07:30.730Z,93.10
2018-03-28T09:09:58.290Z,93.00
2018-03-28T09:12:25.926Z,93.40
2018-03-28T09:14:54.292Z,93.70
2018-03-28T09:17:21.895Z,93.70
2018-03-28T09:19:49.479Z,93.90
2018-03-28T09:22:17.039Z,94.00
2018-03-28T09:24:45.146Z,93.80
2018-03-28T09:27:12.714Z,94.00
2018-03-28T09:29:40.372Z,93.70
2018-03-28T09:32:07.975Z,94.10
2018-03-28T09:34:35.531Z,93.80
2018-03-28T09:37:03.130Z,93.70
2018-03-28T09:39:31.891Z,93.80
2018-03-28T09:41:59.517Z,92.80
2018-03-28T09:44:27.110Z,92.80
2018-03-28T09:46:55.644Z,92.40
2018-03-28T09:49:23.256Z,92.30
2018-03-28T09:51:51.670Z,91.80
2018-03-28T09:54:19.556Z,91.80
2018-03-28T09:56:47.203Z,91.30
2018-03-28T09:59:14.834Z,91.30
2018-03-28T10:01:48.083Z,91.00
2018-03-28T10:04:15.966Z,90.30
2018-03-28T10:06:43.624Z,90.30
2018-03-28T10:09:11.216Z,90.60
2018-03-28T10:11:38.806Z,90.70
2018-03-28T10:14:06.419Z,91.10
2018-03-28T10:16:34.308Z,91.10
2018-03-28T10:19:02.660Z,91.10
2018-03-28T10:21:30.886Z,91.10
2018-03-28T10:23:58.446Z,91.50
2018-03-28T10:26:28.176Z,90.80
2018-03-28T10:28:56.646Z,91.10
2018-03-28T10:31:25.044Z,90.40
2018-03-28T10:33:52.603Z,91.20
2018-03-28T10:36:20.200Z,91.40
2018-03-28T10:38:47.801Z,91.10
2018-03-28T10:41:16.163Z,89.70
2018-03-28T10:43:43.736Z,89.60
2018-03-28T10:46:12.094Z,89.50
2018-03-28T10:48:39.659Z,89.50
2018-03-28T10:51:08.030Z,88.50
2018-03-28T10:53:35.682Z,88.00
2018-03-28T10:56:03.276Z,87.80
2018-03-28T10:58:31.863Z,88.30
2018-03-28T11:00:59.700Z,85.70
2018-03-28T11:03:28.228Z,85.80
2018-03-28T11:05:56.616Z,85.90
2018-03-28T11:08:24.207Z,85.80
2018-03-28T11:10:51.814Z,84.80
2018-03-28T11:13:19.582Z,83.70
2018-03-28T11:15:47.626Z,82.00
2018-03-28T11:18:15.209Z,81.30
2018-03-28T11:20:42.779Z,82.10
2018-03-28T11:23:10.971Z,84.50
2018-03-28T11:25:39.325Z,80.40
2018-03-28T11:28:06.998Z,81.00
2018-03-28T11:30:34.605Z,80.80
2018-03-28T11:33:03.005Z,79.20
2018-03-28T11:35:30.638Z,79.10
2018-03-28T11:37:58.303Z,78.50
2018-03-28T11:40:25.863Z,77.80
2018-03-28T11:42:54.234Z,74.10
2018-03-28T11:45:23.397Z,74.20
2018-03-28T11:47:50.993Z,74.20
2018-03-28T11:50:18.734Z,73.20
2018-03-28T11:52:46.493Z,73.50
2018-03-28T11:55:14.067Z,73.00
2018-03-28T11:57:41.652Z,71.90
2018-03-28T12:00:09.727Z,69.80
2018-03-28T12:02:38.991Z,72.30
2018-03-28T12:05:06.584Z,72.80
2018-03-28T12:07:34.958Z,72.80
2018-03-28T12:10:02.520Z,72.50
2018-03-28T12:12:30.481Z,73.30
2018-03-28T12:14:58.083Z,76.20
2018-03-28T12:17:25.642Z,77.10
2018-03-28T12:19:53.263Z,79.60
2018-03-28T12:22:21.588Z,79.40
2018-03-28T12:24:49.189Z,77.80
2018-03-28T12:27:16.783Z,79.40
2018-03-28T12:29:44.669Z,78.50
2018-03-28T12:32:12.240Z,79.10
2018-03-28T12:34:39.850Z,81.00
2018-03-28T12:37:07.514Z,80.20
2018-03-28T12:39:35.107Z,78.00
2018-03-28T12:42:03.474Z,77.30
2018-03-28T12:44:31.045Z,78.60
2018-03-28T12:46:58.663Z,79.50
2018-03-28T12:49:27.034Z,75.20
2018-03-28T12:51:55.419Z,76.80
2018-03-28T12:54:23.739Z,76.90
2018-03-28T12:56:51.370Z,70.40
2018-03-28T12:59:19.943Z,75.20
2018-03-28T13:01:48.300Z,81.20
2018-03-28T13:04:15.871Z,81.20
2018-03-28T13:06:43.751Z,83.10
2018-03-28T13:09:11.327Z,85.70
2018-03-28T13:11:38.892Z,86.80
2018-03-28T13:14:07.251Z,85.50
2018-03-28T13:16:34.837Z,85.50
2018-03-28T13:19:02.423Z,85.50
2018-03-28T13:21:30.019Z,85.60
2018-03-28T13:23:57.613Z,85.90
2018-03-28T13:26:25.215Z,88.60
2018-03-28T13:28:53.042Z,89.60
2018-03-28T13:31:20.700Z,89.00
2018-03-28T13:33:49.470Z,88.10
2018-03-28T13:36:17.071Z,88.30
2018-03-28T13:38:45.500Z,84.60
2018-03-28T13:41:13.106Z,84.60
2018-03-28T13:43:41.438Z,76.20
2018-03-28T13:46:09.047Z,76.10
2018-03-28T13:48:37.386Z,76.30
2018-03-28T13:51:05.018Z,76.30
2018-03-28T13:53:32.577Z,78.00
2018-03-28T13:56:00.407Z,77.20
2018-03-28T13:58:27.974Z,80.10
2018-03-28T14:00:55.550Z,80.50
2018-03-28T14:03:23.925Z,80.50
2018-03-28T14:05:51.887Z,80.50
2018-03-28T14:08:19.471Z,79.10
2018-03-28T14:10:47.040Z,80.00
2018-03-28T14:13:15.876Z,82.30
2018-03-28T14:15:43.463Z,82.40
2018-03-28T14:18:12.605Z,85.30
2018-03-28T14:20:40.218Z,85.20
2018-03-28T14:23:07.822Z,86.60
2018-03-28T14:25:36.243Z,83.20
2018-03-28T14:28:03.839Z,83.20
2018-03-28T14:30:32.984Z,88.40
2018-03-28T14:33:00.576Z,88.30
2018-03-28T14:35:28.640Z,90.00
2018-03-28T14:37:56.226Z,90.00
2018-03-28T14:40:23.798Z,88.20
2018-03-28T14:42:54.587Z,86.70
2018-03-28T14:45:19.012Z,85.40
2018-03-28T14:47:46.654Z,84.40
2018-03-28T14:50:14.434Z,82.20
2018-03-28T14:52:42.909Z,77.00
2018-03-28T14:55:10.584Z,75.80
2018-03-28T14:57:38.168Z,77.50
2018-03-28T15:00:05.744Z,77.10
2018-03-28T15:02:33.911Z,79.10
2018-03-28T15:05:01.504Z,77.70
2018-03-28T15:07:29.075Z,71.50
2018-03-28T15:09:56.662Z,58.20
2018-03-28T15:12:24.263Z,53.10
2018-03-28T15:14:51.826Z,53.20
2018-03-28T15:17:19.700Z,55.60
2018-03-28T15:19:47.269Z,55.80
2018-03-28T15:22:14.850Z,58.10
2018-03-28T15:24:43.490Z,65.10
2018-03-28T15:27:11.103Z,65.40
2018-03-28T15:29:38.679Z,69.40
2018-03-28T15:32:06.268Z,69.60
2018-03-28T15:34:33.851Z,72.50
2018-03-28T15:37:01.410Z,76.00
2018-03-28T15:39:29.019Z,76.80
2018-03-28T15:41:56.599Z,80.20
2018-03-28T15:44:24.519Z,80.50
2018-03-28T15:46:52.091Z,82.40
2018-03-28T15:49:21.162Z,64.80
2018-03-28T15:51:48.757Z,64.70
2018-03-28T15:54:16.343Z,57.20
2018-03-28T15:56:43.930Z,56.10
2018-03-28T15:59:12.935Z,53.80
2018-03-28T16:01:40.538Z,54.40
2018-03-28T16:04:09.678Z,59.30
2018-03-28T16:06:37.272Z,59.30
2018-03-28T16:09:06.207Z,59.30
2018-03-28T16:11:33.998Z,59.80
2018-03-28T16:14:01.613Z,64.30
2018-03-28T16:16:30.150Z,64.30
2018-03-28T16:18:58.579Z,66.70
2018-03-28T16:21:26.215Z,67.10
2018-03-28T16:23:53.818Z,68.20
2018-03-28T16:26:21.432Z,64.40
2018-03-28T16:28:48.987Z,64.60
2018-03-28T16:31:16.689Z,62.30
2018-03-28T16:33:44.257Z,57.70
2018-03-28T16:36:11.824Z,60.00
2018-03-28T16:38:39.477Z,58.40
2018-03-28T16:41:07.060Z,55.20
2018-03-28T16:43:34.635Z,53.70
2018-03-28T16:46:03.065Z,50.00
2018-03-28T16:48:30.661Z,49.80
2018-03-28T16:50:58.248Z,51.00
2018-03-28T16:53:26.614Z,50.50
2018-03-28T16:55:54.967Z,51.50
2018-03-28T16:58:22.577Z,51.20
2018-03-28T17:00:51.626Z,50.30
2018-03-28T17:03:19.280Z,50.30
2018-03-28T17:05:46.875Z,51.10
2018-03-28T17:08:16.019Z,52.80
2018-03-28T17:10:43.786Z,52.70
2018-03-28T17:13:11.361Z,54.70
2018-03-28T17:15:38.941Z,57.30
2018-03-28T17:18:08.392Z,59.50
2018-03-28T17:20:36.739Z,61.40
2018-03-28T17:23:04.307Z,61.20
2018-03-28T17:25:31.902Z,62.20
2018-03-28T17:27:59.529Z,65.10
2018-03-28T17:30:27.103Z,67.00
2018-03-28T17:32:54.699Z,70.00
2018-03-28T17:35:22.998Z,71.80
2018-03-28T17:37:50.788Z,73.70
2018-03-28T17:40:18.552Z,75.00
2018-03-28T17:42:46.474Z,76.50
2018-03-28T17:45:14.823Z,78.20
2018-03-28T17:47:42.417Z,77.60
2018-03-28T17:50:11.721Z,79.40
2018-03-28T17:52:40.599Z,79.30
2018-03-28T17:55:09.735Z,80.20
2018-03-28T17:57:38.095Z,80.50
2018-03-28T18:00:07.177Z,80.50
2018-03-28T18:02:38.024Z,80.60
2018-03-28T18:05:05.825Z,80.00
2018-03-28T18:07:33.475Z,79.10
2018-03-28T18:12:40.388Z,80.60
2018-03-28T18:15:08.004Z,81.00
2018-03-28T18:17:35.677Z,81.60
2018-03-28T18:20:04.778Z,82.50
2018-03-28T18:22:32.385Z,82.60
2018-03-28T18:25:00.006Z,82.60
2018-03-28T18:27:27.562Z,83.00
2018-03-28T18:29:56.138Z,83.50
2018-03-28T18:32:23.716Z,83.50
2018-03-28T18:34:51.283Z,84.00
2018-03-28T18:37:18.888Z,84.30
2018-03-28T18:39:46.491Z,84.50
2018-03-28T18:42:14.215Z,85.00
2018-03-28T18:44:41.851Z,85.00
2018-03-28T18:47:10.215Z,85.30
2018-03-28T18:49:37.853Z,85.20
2018-03-28T18:52:05.527Z,85.10
2018-03-28T18:54:33.140Z,85.20
2018-03-28T18:57:00.760Z,85.50
2018-03-28T18:59:28.592Z,85.80
2018-03-28T19:01:57.548Z,85.70
2018-03-28T19:04:25.404Z,85.90
2018-03-28T19:06:54.526Z,86.40
2018-03-28T19:09:22.876Z,86.40
2018-03-28T19:11:50.924Z,86.80
2018-03-28T19:14:18.487Z,87.10
2018-03-28T19:16:46.131Z,87.30
2018-03-28T19:19:13.877Z,87.20
2018-03-28T19:21:41.710Z,86.90
2018-03-28T19:24:09.395Z,87.30
2018-03-28T19:26:36.977Z,87.30
2018-03-28T19:29:05.388Z,86.90
2018-03-28T19:31:32.992Z,86.90
2018-03-28T19:34:00.606Z,87.30
2018-03-28T19:36:28.689Z,87.40
2018-03-28T19:38:56.314Z,87.20
2018-03-28T19:41:25.867Z,87.20
2018-03-28T19:43:53.506Z,87.20
2018-03-28T19:46:21.135Z,87.10
2018-03-28T19:48:48.756Z,86.80
2018-03-28T19:51:16.381Z,86.70
2018-03-28T19:53:45.762Z,86.40
2018-03-28T19:56:13.382Z,86.30
2018-03-28T19:58:40.969Z,86.50
2018-03-28T20:01:08.574Z,86.30
2018-03-28T20:03:37.063Z,86.30
2018-03-28T20:06:04.748Z,86.80
2018-03-28T20:08:32.708Z,86.80
2018-03-28T20:11:00.419Z,86.70
2018-03-28T20:13:29.001Z,86.70
2018-03-28T20:15:57.692Z,86.70
2018-03-28T20:18:25.361Z,86.60
2018-03-28T20:20:53.107Z,86.90
2018-03-28T20:23:20.710Z,86.60
2018-03-28T20:25:49.828Z,86.40
2018-03-28T20:28:17.451Z,86.40
2018-03-28T20:30:45.056Z,86.10
2018-03-28T20:33:13.953Z,86.20
2018-03-28T20:35:42.821Z,86.00
2018-03-28T20:38:10.442Z,86.00
2018-03-28T20:40:38.042Z,86.60
2018-03-28T20:43:05.680Z,86.10
2018-03-28T20:45:33.257Z,86.20
2018-03-28T20:48:01.310Z,86.30
2018-03-28T20:50:28.896Z,86.50
2018-03-28T20:52:56.562Z,86.20
2018-03-28T20:55:24.335Z,86.70
2018-03-28T20:57:51.928Z,86.60
2018-03-28T21:00:20.350Z,86.70
2018-03-28T21:02:47.959Z,86.60
2018-03-28T21:05:15.686Z,86.50
2018-03-28T21:07:44.394Z,87.00
2018-03-28T21:10:12.801Z,87.40
2018-03-28T21:12:40.454Z,87.40
2018-03-28T21:15:08.071Z,87.60
2018-03-28T21:17:35.753Z,87.50
2018-03-28T21:20:03.847Z,87.70
2018-03-28T21:22:31.478Z,87.80
2018-03-28T21:24:59.075Z,87.60
2018-03-28T21:27:27.995Z,88.10
2018-03-28T21:29:56.345Z,88.70
2018-03-28T21:32:24.637Z,88.70
2018-03-28T21:34:52.628Z,89.00
2018-03-28T21:37:20.998Z,89.80
2018-03-28T21:39:48.719Z,89.80
2018-03-28T21:42:16.534Z,89.70
2018-03-28T21:44:44.273Z,90.00
2018-03-28T21:47:11.871Z,90.20
2018-03-28T21:49:40.240Z,90.40
2018-03-28T21:52:07.856Z,90.40
2018-03-28T21:54:36.278Z,90.40
2018-03-28T21:57:03.863Z,90.50
2018-03-28T21:59:33.069Z,90.30
2018-03-28T22:02:00.772Z,90.30
2018-03-28T22:04:28.363Z,90.10
2018-03-28T22:06:55.982Z,90.20
2018-03-28T22:09:23.802Z,90.00
2018-03-28T22:11:51.640Z,89.70
2018-03-28T22:14:19.320Z,89.70
2018-03-28T22:16:46.953Z,89.60
2018-03-28T22:19:15.486Z,90.10
2018-03-28T22:21:43.579Z,89.80
2018-03-28T22:24:11.930Z,90.10
2018-03-28T22:26:40.415Z,90.00
2018-03-28T22:29:08.018Z,90.10
2018-03-28T22:31:38.088Z,90.10
2018-03-28T22:34:05.965Z,90.10
2018-03-28T22:36:34.445Z,90.20
2018-03-28T22:39:02.152Z,90.10
2018-03-28T22:41:29.964Z,89.90
2018-03-28T22:43:58.392Z,89.70
2018-03-28T22:46:25.981Z,89.60
2018-03-28T22:48:54.450Z,90.30
2018-03-28T22:51:22.099Z,89.50
2018-03-28T22:53:50.083Z,89.60
2018-03-28T22:56:19.555Z,89.40
2018-03-28T22:58:47.574Z,89.30
2018-03-28T23:01:16.458Z,89.20
2018-03-28T23:03:46.629Z,89.50
2018-03-28T23:06:14.593Z,89.40
2018-03-28T23:08:45.468Z,89.60
2018-03-28T23:11:13.073Z,89.60
2018-03-28T23:13:41.555Z,89.50
2018-03-28T23:16:10.138Z,89.30
2018-03-28T23:18:38.365Z,88.60
2018-03-28T23:21:06.006Z,87.90
2018-03-28T23:23:33.606Z,87.80
2018-03-28T23:26:01.186Z,87.60
2018-03-28T23:28:28.810Z,87.20
2018-03-28T23:30:56.696Z,86.60
2018-03-28T23:33:24.722Z,86.40
2018-03-28T23:35:53.215Z,86.50
2018-03-28T23:38:21.675Z,86.50
2018-03-28T23:40:50.492Z,86.50
2018-03-28T23:43:18.055Z,86.50
2018-03-28T23:45:45.683Z,85.50
2018-03-28T23:48:13.958Z,85.30
2018-03-28T23:50:42.406Z,85.00
2018-03-28T23:53:09.959Z,84.80
2018-03-28T23:55:37.668Z,83.80
2018-03-28T23:58:05.289Z,83.70
